This is the latest recevied weather packets stored in our database for station/object IW1PPB-3. If no packets are shown the sender has not sent any weather packets the latest 1 day(s).
| Time | Temp. | Humidity | Pressure | Rain* | Wind** | Luminosity | Snow |
|---|---|---|---|---|---|---|---|
| 1778064207 | 18.33° C | 77% | 1007.6 hPa | 0 mm | - | - | - |
| 1778063608 | 18.33° C | 77% | 1007.7 hPa | 0 mm | - | - | - |
| 1778063013 | 18.33° C | 77% | 1007.8 hPa | 0 mm | - | - | - |
| 1778062421 | 18.33° C | 78% | 1007.8 hPa | 0 mm | - | - | - |
| 1778060619 | 17.78° C | 77% | 1007.8 hPa | 0 mm | - | - | - |
| 1778060020 | 17.78° C | 79% | 1007.9 hPa | 0 mm | - | - | - |
| 1778058813 | 17.22° C | 78% | 1007.9 hPa | 0 mm | - | - | - |
| 1778057611 | 17.78° C | 75% | 1008 hPa | 0 mm | - | - | - |
| 1778055220 | 17.22° C | 76% | 1008 hPa | 0 mm | - | - | - |
| 1778053406 | 17.22° C | 78% | 1008.1 hPa | 0 mm | - | - | - |
| 1778052824 | 17.22° C | 77% | 1007.9 hPa | 0 mm | - | - | - |
| 1778051616 | 16.67° C | 82% | 1007.8 hPa | 0 mm | - | - | - |
| 1778050413 | 16.11° C | 85% | 1007.6 hPa | 0 mm | - | - | - |
| 1778049208 | 15.56° C | 86% | 1007.3 hPa | 0 mm | - | - | - |
| 1778048631 | 15° C | 87% | 1007.2 hPa | 0 mm | - | - | - |
| 1778048017 | 15° C | 88% | 1007.1 hPa | 1.02 mm | - | - | - |
| 1778045617 | 14.44° C | 89% | 1007.4 hPa | 10.92 mm | - | - | - |
| 1778045022 | 14.44° C | 89% | 1007.5 hPa | 10.92 mm | - | - | - |
| 1778044420 | 14.44° C | 89% | 1007.6 hPa | 10.92 mm | - | - | - |
| 1778043209 | 14.44° C | 88% | 1008 hPa | 8.89 mm | - | - | - |
| 1778042612 | 14.44° C | 88% | 1008.2 hPa | 6.1 mm | - | - | - |
| 1778040215 | 14.44° C | 88% | 1008 hPa | 0 mm | - | - | - |
| 1778039609 | 14.44° C | 88% | 1008.1 hPa | 0 mm | - | - | - |
| 1778038419 | 14.44° C | 87% | 1008.3 hPa | 0 mm | - | - | - |
| 1778037809 | 14.44° C | 86% | 1008.3 hPa | 0 mm | - | - | - |
* Rain latest hour (hover to see other rain measurements)
** Current wind speed in m/s (hover to see current wind gust speed)